Terminal Aerodrome Forecast
Issued by NWS

Home | Current Version | Previous Version | Text Only | Print | Product List | Glossary Off
Versions: 1 2 3 4 5 6 7 8 9 10 11 12 13

000
FTUS45 KGGW 032300
TAFSDY
TAF
KSDY 032320Z 0400/0424 30018G25KT P6SM SCT060
     FM040600 31015KT P6SM VCSH BKN040
     FM041200 32010KT P6SM SCT040
      AMD LTD TO CLD VIS AND WIND=

USA.gov is the U.S. government's official web portal to all federal, state and local government web resources and services.